createdAt,value
2019-01-03T00:01:56.097Z,6.63
2019-01-03T00:04:29.596Z,6.27
2019-01-03T00:07:00.382Z,6.23
2019-01-03T00:09:31.151Z,7.63
2019-01-03T00:12:07.853Z,7.33
2019-01-03T00:14:41.573Z,7.07
2019-01-03T00:17:24.288Z,6.20
2019-01-03T00:20:04.211Z,6.50
2019-01-03T00:22:51.013Z,5.20
2019-01-03T00:25:27.720Z,4.40
2019-01-03T00:28:04.538Z,5.33
2019-01-03T00:30:35.273Z,6.00
2019-01-03T00:33:15.294Z,5.73
2019-01-03T00:36:01.130Z,7.07
2019-01-03T00:38:34.892Z,5.30
2019-01-03T00:41:05.668Z,5.00
2019-01-03T00:43:39.218Z,4.73
2019-01-03T00:46:09.996Z,5.73
2019-01-03T00:48:55.726Z,6.33
2019-01-03T00:51:38.571Z,6.23
2019-01-03T00:54:12.285Z,5.93
2019-01-03T00:56:59.037Z,6.33
2019-01-03T00:59:29.780Z,5.00
2019-01-03T01:02:09.337Z,6.20
2019-01-03T01:04:56.616Z,5.77
2019-01-03T01:07:30.104Z,6.63
2019-01-03T01:10:09.594Z,5.60
2019-01-03T01:12:40.389Z,6.83
2019-01-03T01:15:22.767Z,6.63
2019-01-03T01:18:08.379Z,7.00
2019-01-03T01:20:41.881Z,7.43
2019-01-03T01:23:29.106Z,6.83
2019-01-03T01:26:16.045Z,7.07
2019-01-03T01:29:03.001Z,4.97
2019-01-03T01:31:48.793Z,5.53
2019-01-03T01:34:22.104Z,5.60
2019-01-03T01:36:52.895Z,5.67
2019-01-03T01:39:39.825Z,6.30
2019-01-03T01:42:13.282Z,7.27
2019-01-03T01:44:52.973Z,6.83
2019-01-03T01:47:29.796Z,8.97
2019-01-03T01:50:16.583Z,9.37
2019-01-03T01:52:49.806Z,9.70
2019-01-03T01:55:26.532Z,9.13
2019-01-03T01:58:06.263Z,11.37
2019-01-03T02:00:43.035Z,9.37
2019-01-03T02:03:16.584Z,8.10
2019-01-03T02:05:53.370Z,6.93
2019-01-03T02:08:24.162Z,6.53
2019-01-03T02:11:12.946Z,4.70
2019-01-03T02:13:58.496Z,6.13
2019-01-03T02:16:32.134Z,4.97
2019-01-03T02:19:02.928Z,4.77
2019-01-03T02:21:33.686Z,4.80
2019-01-03T02:24:10.371Z,4.10
2019-01-03T02:26:41.150Z,5.00
2019-01-03T02:29:30.047Z,4.40
2019-01-03T02:32:09.430Z,5.57
2019-01-03T02:34:56.300Z,4.63
2019-01-03T02:37:44.890Z,5.83
2019-01-03T02:40:33.886Z,4.10
2019-01-03T02:43:10.519Z,4.70
2019-01-03T02:45:46.917Z,5.00
2019-01-03T02:48:34.119Z,4.63
2019-01-03T02:51:16.701Z,4.80
2019-01-03T02:53:50.703Z,4.43
2019-01-03T02:56:27.386Z,4.37
2019-01-03T02:59:00.600Z,5.70
2019-01-03T03:01:37.394Z,5.23
2019-01-03T03:04:25.940Z,5.33
2019-01-03T03:06:56.709Z,5.50
2019-01-03T03:09:36.063Z,5.10
2019-01-03T03:12:09.242Z,4.93
2019-01-03T03:14:40.041Z,5.57
2019-01-03T03:17:17.063Z,5.10
2019-01-03T03:19:50.362Z,6.00
2019-01-03T03:22:21.133Z,5.40
2019-01-03T03:25:00.915Z,3.77
2019-01-03T03:27:31.766Z,3.67
2019-01-03T03:30:08.513Z,4.63
2019-01-03T03:32:54.071Z,3.43
2019-01-03T03:35:27.551Z,4.47
2019-01-03T03:38:00.803Z,4.37
2019-01-03T03:40:43.530Z,3.83
2019-01-03T03:43:14.301Z,4.07
2019-01-03T03:45:45.100Z,3.17
2019-01-03T03:48:15.876Z,3.80
2019-01-03T03:50:46.649Z,4.50
2019-01-03T03:53:17.447Z,3.30
2019-01-03T03:55:48.222Z,3.07
2019-01-03T03:58:35.303Z,2.80
2019-01-03T04:01:15.094Z,3.37
2019-01-03T04:04:02.246Z,3.97
2019-01-03T04:06:49.072Z,3.60
2019-01-03T04:09:25.677Z,3.13
2019-01-03T04:11:56.444Z,3.53
2019-01-03T04:14:43.418Z,4.50
2019-01-03T04:17:26.229Z,3.23
2019-01-03T04:20:02.670Z,3.90
2019-01-03T04:22:48.613Z,3.13
2019-01-03T04:25:22.244Z,3.37
2019-01-03T04:27:53.010Z,3.20
2019-01-03T04:30:23.782Z,4.23
2019-01-03T04:33:09.644Z,4.27
2019-01-03T04:35:56.792Z,4.60
2019-01-03T04:38:42.625Z,3.13
2019-01-03T04:41:25.656Z,4.20
2019-01-03T04:44:02.666Z,3.43
2019-01-03T04:46:33.452Z,4.40
2019-01-03T04:49:20.606Z,3.63
2019-01-03T04:51:51.393Z,4.57
2019-01-03T04:54:38.686Z,3.87
2019-01-03T04:57:15.056Z,3.30
2019-01-03T04:59:45.836Z,3.33
2019-01-03T05:02:19.082Z,3.73
2019-01-03T05:04:49.814Z,3.60
2019-01-03T05:07:20.592Z,3.43
2019-01-03T05:09:51.371Z,3.10
2019-01-03T05:12:22.146Z,4.30
2019-01-03T05:14:58.618Z,3.17
2019-01-03T05:17:35.357Z,3.03
2019-01-03T05:20:09.658Z,4.67
2019-01-03T05:22:42.854Z,5.47
2019-01-03T05:25:28.658Z,4.67
2019-01-03T05:28:15.661Z,4.83
2019-01-03T05:30:49.373Z,4.30
2019-01-03T05:33:26.122Z,6.43
2019-01-03T05:35:56.914Z,6.03
2019-01-03T05:38:43.764Z,4.90
2019-01-03T05:41:17.437Z,5.60
2019-01-03T05:43:48.215Z,4.90
2019-01-03T05:46:21.724Z,4.50
2019-01-03T05:49:08.774Z,6.57
2019-01-03T05:51:55.804Z,6.30
2019-01-03T05:54:29.281Z,5.60
2019-01-03T05:57:00.045Z,3.87
2019-01-03T05:59:30.818Z,4.30
2019-01-03T06:02:10.916Z,2.77
2019-01-03T06:04:50.589Z,3.63
2019-01-03T06:07:24.366Z,3.80
2019-01-03T06:09:55.163Z,3.13
2019-01-03T06:12:25.955Z,2.87
2019-01-03T06:15:05.528Z,3.40
2019-01-03T06:17:52.735Z,2.50
2019-01-03T06:20:26.178Z,2.53
2019-01-03T06:23:13.312Z,2.93
2019-01-03T06:25:49.754Z,2.27
2019-01-03T06:28:36.429Z,3.20
2019-01-03T06:31:07.213Z,3.30
2019-01-03T06:33:38.035Z,6.17
2019-01-03T06:36:14.789Z,5.60
2019-01-03T06:38:48.354Z,5.30
2019-01-03T06:41:24.957Z,4.50
2019-01-03T06:44:01.285Z,4.40
2019-01-03T06:46:32.052Z,4.20
2019-01-03T06:49:18.978Z,3.47
2019-01-03T06:51:49.757Z,4.93
2019-01-03T06:54:29.505Z,4.00
2019-01-03T06:57:16.641Z,3.40
2019-01-03T07:00:03.525Z,3.40
2019-01-03T07:02:50.369Z,3.80
2019-01-03T07:05:27.143Z,3.50
2019-01-03T07:08:07.097Z,3.53
2019-01-03T07:10:53.767Z,4.70
2019-01-03T07:13:40.786Z,4.03
2019-01-03T07:16:27.601Z,4.30
2019-01-03T07:19:10.169Z,3.47
2019-01-03T07:21:46.522Z,4.80
2019-01-03T07:24:17.304Z,3.07
2019-01-03T07:26:50.486Z,4.97
2019-01-03T07:29:36.294Z,6.67
2019-01-03T07:32:16.051Z,11.47
2019-01-03T07:34:46.861Z,8.23
2019-01-03T07:37:26.310Z,5.90
2019-01-03T07:39:59.615Z,7.37
2019-01-03T07:42:42.401Z,7.63
2019-01-03T07:45:29.020Z,6.40
2019-01-03T07:48:11.829Z,8.73
2019-01-03T07:50:54.427Z,9.07
2019-01-03T07:53:34.433Z,11.20
2019-01-03T07:56:22.212Z,9.27
2019-01-03T07:59:09.336Z,9.20
2019-01-03T08:01:40.094Z,8.57
2019-01-03T08:04:27.087Z,9.30
2019-01-03T08:07:15.966Z,6.83
2019-01-03T08:10:02.630Z,8.90
2019-01-03T08:12:33.412Z,8.33
2019-01-03T08:15:13.169Z,8.00
2019-01-03T08:18:00.278Z,7.90
2019-01-03T08:20:36.801Z,4.57
2019-01-03T08:23:16.950Z,5.43
2019-01-03T08:26:04.175Z,5.20
2019-01-03T08:28:50.274Z,5.30
2019-01-03T08:31:26.754Z,4.40
2019-01-03T08:34:03.550Z,11.17
2019-01-03T08:36:50.611Z,8.33
2019-01-03T08:39:27.341Z,9.53
2019-01-03T08:42:04.333Z,7.77
2019-01-03T08:44:35.126Z,7.33
2019-01-03T08:47:17.822Z,5.40
2019-01-03T08:49:51.084Z,5.70
2019-01-03T08:52:38.194Z,5.83
2019-01-03T08:55:11.643Z,7.53
2019-01-03T08:57:51.469Z,7.97
2019-01-03T09:00:22.220Z,5.17
2019-01-03T09:03:09.320Z,6.63
2019-01-03T09:05:40.095Z,5.33
2019-01-03T09:08:25.927Z,7.10
2019-01-03T09:10:59.317Z,6.73
2019-01-03T09:13:30.094Z,6.87
2019-01-03T09:16:15.941Z,6.47
2019-01-03T09:18:58.734Z,7.17
2019-01-03T09:21:32.196Z,5.20
2019-01-03T09:24:19.088Z,4.70
2019-01-03T09:26:55.804Z,5.57
2019-01-03T09:29:32.554Z,5.37
2019-01-03T09:32:15.287Z,5.70
2019-01-03T09:34:51.940Z,6.60
2019-01-03T09:37:40.559Z,5.47
2019-01-03T09:40:14.507Z,7.20
2019-01-03T09:43:01.359Z,7.77
2019-01-03T09:45:30.494Z,7.47
2019-01-03T09:47:59.645Z,6.97
2019-01-03T09:50:28.774Z,6.20
2019-01-03T09:52:57.915Z,11.87
2019-01-03T09:55:27.045Z,16.33
2019-01-03T09:57:56.194Z,18.00
2019-01-03T10:00:25.321Z,19.10
2019-01-03T10:02:54.477Z,14.23
2019-01-03T10:05:23.603Z,11.93
2019-01-03T10:07:52.773Z,14.87
2019-01-03T10:10:21.898Z,12.43
2019-01-03T10:12:51.048Z,14.47
2019-01-03T10:15:20.181Z,16.17
2019-01-03T10:17:49.332Z,15.93
2019-01-03T10:20:18.456Z,12.60
2019-01-03T10:22:47.614Z,13.17
2019-01-03T10:25:16.744Z,13.63
2019-01-03T10:27:45.880Z,15.07
2019-01-03T10:30:15.027Z,13.73
2019-01-03T10:32:44.161Z,16.13
2019-01-03T10:35:13.299Z,13.87
2019-01-03T10:37:42.451Z,10.73
2019-01-03T10:40:11.581Z,14.17
2019-01-03T10:42:40.715Z,11.47
2019-01-03T10:45:10.414Z,9.07
2019-01-03T10:47:39.562Z,7.80
2019-01-03T10:50:09.056Z,7.93
2019-01-03T10:52:38.197Z,7.07
2019-01-03T10:55:07.791Z,6.60
2019-01-03T10:57:36.929Z,7.23
2019-01-03T11:00:08.063Z,6.87
2019-01-03T11:02:37.191Z,5.53
2019-01-03T11:05:06.329Z,6.17
2019-01-03T11:07:35.466Z,6.87
2019-01-03T11:10:05.136Z,6.27
2019-01-03T11:12:34.273Z,7.17
2019-01-03T11:15:03.392Z,5.73
2019-01-03T11:17:32.543Z,6.40
2019-01-03T11:20:01.658Z,4.60
2019-01-03T11:22:30.800Z,5.53
2019-01-03T11:24:59.930Z,5.87
2019-01-03T11:27:29.068Z,5.60
2019-01-03T11:30:07.326Z,5.07
2019-01-03T11:32:36.458Z,5.50
2019-01-03T11:35:07.020Z,6.43
2019-01-03T11:37:36.244Z,6.03
2019-01-03T11:40:07.081Z,5.37
2019-01-03T11:42:36.231Z,6.17
2019-01-03T11:45:06.127Z,6.13
2019-01-03T11:47:35.320Z,5.30
2019-01-03T11:50:07.210Z,6.43
2019-01-03T11:52:36.343Z,7.43
2019-01-03T11:55:06.534Z,7.27
2019-01-03T11:57:35.658Z,7.80
2019-01-03T12:00:08.623Z,8.10
2019-01-03T12:02:37.751Z,9.00
2019-01-03T12:05:08.512Z,7.60
2019-01-03T12:07:37.628Z,7.20
2019-01-03T12:10:07.165Z,8.00
2019-01-03T12:12:36.272Z,7.40
2019-01-03T12:15:08.422Z,6.23
2019-01-03T12:17:37.549Z,6.23
2019-01-03T12:20:07.372Z,5.33
2019-01-03T12:22:36.529Z,5.50
2019-01-03T12:25:05.691Z,6.23
2019-01-03T12:27:34.797Z,5.47
2019-01-03T12:30:04.414Z,5.67
2019-01-03T12:32:33.549Z,6.43
2019-01-03T12:35:02.695Z,6.57
2019-01-03T12:37:31.816Z,6.63
2019-01-03T12:40:00.978Z,6.77
2019-01-03T12:42:30.086Z,6.90
2019-01-03T12:44:59.227Z,7.40
2019-01-03T12:47:28.351Z,7.03
2019-01-03T12:49:57.503Z,7.60
2019-01-03T12:52:26.625Z,8.47
2019-01-03T12:54:55.774Z,8.50
2019-01-03T12:57:24.894Z,7.47
2019-01-03T12:59:54.037Z,8.10
2019-01-03T13:02:23.174Z,7.40
2019-01-03T13:04:52.333Z,6.43
2019-01-03T13:07:21.469Z,6.73
2019-01-03T13:09:50.635Z,8.20
2019-01-03T13:12:19.761Z,7.10
2019-01-03T13:14:48.911Z,6.43
2019-01-03T13:17:18.045Z,7.83
2019-01-03T13:19:47.270Z,6.50
2019-01-03T13:22:16.401Z,6.00
2019-01-03T13:24:45.537Z,6.57
2019-01-03T13:27:14.666Z,6.07
2019-01-03T13:29:43.836Z,5.43
2019-01-03T13:32:12.954Z,7.70
2019-01-03T13:34:42.107Z,6.83
2019-01-03T13:37:11.241Z,7.27
2019-01-03T13:39:40.390Z,8.10
2019-01-03T13:42:09.517Z,8.80
2019-01-03T13:44:38.678Z,4.40
2019-01-03T13:47:07.803Z,7.77
2019-01-03T13:49:36.965Z,9.43
2019-01-03T13:52:06.078Z,8.23
2019-01-03T13:54:35.299Z,6.53
2019-01-03T13:57:04.427Z,7.07
2019-01-03T13:59:33.569Z,7.23
2019-01-03T14:02:02.725Z,7.07
2019-01-03T14:04:31.852Z,5.97
2019-01-03T14:07:01.004Z,7.77
2019-01-03T14:09:30.139Z,8.43
2019-01-03T14:11:59.283Z,7.10
2019-01-03T14:14:28.431Z,7.17
2019-01-03T14:16:58.406Z,8.50
2019-01-03T14:19:27.547Z,8.63
2019-01-03T14:21:56.689Z,8.47
2019-01-03T14:24:25.799Z,6.60
2019-01-03T14:26:54.946Z,6.90
2019-01-03T14:29:24.076Z,7.00
2019-01-03T14:31:53.224Z,8.10
2019-01-03T14:34:22.366Z,8.07
2019-01-03T14:36:51.499Z,7.33
2019-01-03T14:39:20.622Z,6.00
2019-01-03T14:41:49.755Z,7.37
2019-01-03T14:44:18.876Z,6.87
2019-01-03T14:46:48.021Z,7.27
2019-01-03T14:49:17.163Z,9.07
2019-01-03T14:51:46.380Z,6.17
2019-01-03T14:54:15.521Z,6.43
2019-01-03T14:56:44.688Z,8.13
2019-01-03T14:59:13.831Z,8.43
2019-01-03T15:01:43.047Z,6.57
2019-01-03T15:04:12.180Z,7.33
2019-01-03T15:06:41.589Z,9.73
2019-01-03T15:09:10.719Z,9.23
2019-01-03T15:11:39.864Z,8.57
2019-01-03T15:14:09.007Z,10.90
2019-01-03T15:16:38.155Z,10.67
2019-01-03T15:19:07.312Z,11.03
2019-01-03T15:21:36.444Z,9.63
2019-01-03T15:24:05.568Z,8.63
2019-01-03T15:26:34.991Z,10.07
2019-01-03T15:29:04.130Z,7.47
2019-01-03T15:31:33.273Z,8.90
2019-01-03T15:34:02.403Z,6.40
2019-01-03T15:36:31.565Z,5.77
2019-01-03T15:39:00.711Z,8.13
2019-01-03T15:41:29.859Z,8.43
2019-01-03T15:43:58.993Z,10.60
2019-01-03T15:46:28.151Z,8.93
2019-01-03T15:48:57.288Z,7.13
2019-01-03T15:51:26.437Z,7.63
2019-01-03T15:53:55.571Z,7.23
2019-01-03T15:56:24.721Z,7.30
2019-01-03T15:58:53.863Z,6.83
2019-01-03T16:01:23.041Z,8.80
2019-01-03T16:03:52.183Z,8.60
2019-01-03T16:06:21.337Z,8.33
2019-01-03T16:08:50.476Z,6.83
2019-01-03T16:11:19.619Z,9.73
2019-01-03T16:13:48.738Z,6.33
2019-01-03T16:16:17.906Z,6.10
2019-01-03T16:18:47.034Z,8.83
2019-01-03T16:21:16.177Z,8.00
2019-01-03T16:23:45.325Z,6.67
2019-01-03T16:26:14.431Z,6.00
2019-01-03T16:28:43.603Z,7.07
2019-01-03T16:31:12.761Z,6.80
2019-01-03T16:33:41.910Z,9.63
2019-01-03T16:36:11.072Z,8.40
2019-01-03T16:38:40.200Z,6.40
2019-01-03T16:41:10.669Z,6.80
2019-01-03T16:43:39.858Z,8.87
2019-01-03T16:46:09.009Z,8.57
2019-01-03T16:48:38.125Z,8.53
2019-01-03T16:51:07.279Z,7.57
2019-01-03T16:53:36.410Z,8.63
2019-01-03T16:56:05.550Z,7.33
2019-01-03T16:58:34.685Z,8.40
2019-01-03T17:01:03.838Z,10.60
2019-01-03T17:03:32.969Z,11.60
2019-01-03T17:06:02.097Z,11.10
2019-01-03T17:08:31.257Z,13.43
2019-01-03T17:11:00.376Z,9.80
2019-01-03T17:13:29.530Z,10.90
2019-01-03T17:15:58.659Z,10.60
2019-01-03T17:18:27.813Z,8.00
2019-01-03T17:20:56.958Z,8.43
2019-01-03T17:23:26.104Z,10.37
2019-01-03T17:25:55.253Z,7.97
2019-01-03T17:28:24.403Z,10.63
2019-01-03T17:30:53.546Z,9.80
2019-01-03T17:33:22.695Z,8.47
2019-01-03T17:35:51.832Z,9.83
2019-01-03T17:38:20.992Z,8.03
2019-01-03T17:40:50.135Z,11.97
2019-01-03T17:43:19.288Z,8.07
2019-01-03T17:45:48.442Z,11.53
2019-01-03T17:48:17.616Z,11.03
2019-01-03T17:50:46.776Z,9.43
2019-01-03T17:53:15.890Z,10.27
2019-01-03T17:55:45.033Z,9.80
2019-01-03T17:58:14.190Z,10.63
2019-01-03T18:00:43.503Z,9.13
2019-01-03T18:03:12.657Z,9.20
2019-01-03T18:05:41.798Z,11.13
2019-01-03T18:08:10.947Z,10.43
2019-01-03T18:10:40.085Z,12.77
2019-01-03T18:13:09.244Z,12.63
2019-01-03T18:15:38.381Z,12.57
2019-01-03T18:18:07.539Z,10.43
2019-01-03T18:20:36.680Z,12.30
2019-01-03T18:23:05.825Z,9.37
2019-01-03T18:25:36.150Z,13.50
2019-01-03T18:28:05.412Z,10.60
2019-01-03T18:30:34.543Z,11.63
2019-01-03T18:33:03.707Z,12.50
2019-01-03T18:35:32.832Z,13.50
2019-01-03T18:38:02.043Z,10.70
2019-01-03T18:40:31.181Z,10.93
2019-01-03T18:43:00.339Z,14.47
2019-01-03T18:45:29.479Z,13.00
2019-01-03T18:47:58.920Z,12.17
2019-01-03T18:50:28.058Z,13.47
2019-01-03T18:52:57.200Z,10.97
2019-01-03T18:55:26.366Z,11.40
2019-01-03T18:57:55.874Z,12.87
2019-01-03T19:00:25.033Z,12.67
2019-01-03T19:02:54.171Z,12.90
2019-01-03T19:05:23.331Z,12.33
2019-01-03T19:07:52.458Z,13.57
2019-01-03T19:10:21.615Z,14.40
2019-01-03T19:12:50.754Z,11.97
2019-01-03T19:15:19.907Z,11.93
2019-01-03T19:17:49.042Z,12.40
2019-01-03T19:20:18.194Z,14.50
2019-01-03T19:22:47.340Z,11.67
2019-01-03T19:25:16.862Z,12.87
2019-01-03T19:27:46.037Z,16.10
2019-01-03T19:30:15.216Z,13.43
2019-01-03T19:32:44.368Z,11.13
2019-01-03T19:35:13.522Z,13.33
2019-01-03T19:37:42.656Z,12.50
2019-01-03T19:40:14.013Z,13.97
2019-01-03T19:42:44.559Z,12.30
2019-01-03T19:45:14.093Z,10.03
2019-01-03T19:47:43.232Z,12.77
2019-01-03T19:50:16.484Z,13.00
2019-01-03T19:52:46.182Z,11.90
2019-01-03T19:55:15.446Z,13.10
2019-01-03T19:57:44.580Z,13.43
2019-01-03T20:00:15.763Z,11.07
2019-01-03T20:02:44.886Z,10.73
2019-01-03T20:05:14.047Z,12.23
2019-01-03T20:07:43.263Z,12.73
2019-01-03T20:10:13.578Z,12.47
2019-01-03T20:12:43.415Z,13.23
2019-01-03T20:15:14.747Z,11.47
2019-01-03T20:17:43.873Z,12.90
2019-01-03T20:20:13.042Z,10.00
2019-01-03T20:22:42.168Z,11.47
2019-01-03T20:25:11.704Z,9.73
2019-01-03T20:27:40.855Z,13.20
2019-01-03T20:30:11.453Z,11.60
2019-01-03T20:32:40.617Z,12.70
2019-01-03T20:35:09.786Z,12.63
2019-01-03T20:37:38.918Z,11.90
2019-01-03T20:40:09.717Z,11.87
2019-01-03T20:42:38.930Z,10.93
2019-01-03T20:45:12.079Z,9.93
2019-01-03T20:47:41.230Z,10.73
2019-01-03T20:50:12.678Z,11.10
2019-01-03T20:52:41.833Z,11.90
2019-01-03T20:55:11.037Z,15.57
2019-01-03T20:57:40.184Z,13.03
2019-01-03T21:00:13.496Z,13.87
2019-01-03T21:02:42.651Z,11.73
2019-01-03T21:05:11.820Z,12.77
2019-01-03T21:07:40.945Z,11.40
2019-01-03T21:10:11.886Z,10.13
2019-01-03T21:12:41.040Z,11.43
2019-01-03T21:15:14.285Z,12.20
2019-01-03T21:17:43.443Z,13.93
2019-01-03T21:20:15.593Z,12.77
2019-01-03T21:22:44.750Z,15.13
2019-01-03T21:25:13.892Z,14.73
2019-01-03T21:27:43.042Z,15.33
2019-01-03T21:30:17.984Z,13.47
2019-01-03T21:32:47.137Z,11.33
2019-01-03T21:35:16.270Z,12.33
2019-01-03T21:37:45.416Z,13.17
2019-01-03T21:40:14.545Z,12.83
2019-01-03T21:42:43.701Z,13.30
2019-01-03T21:45:12.921Z,19.40
2019-01-03T21:47:42.066Z,16.27
2019-01-03T21:50:11.935Z,17.70
2019-01-03T21:52:41.091Z,15.10
2019-01-03T21:55:10.235Z,16.07
2019-01-03T21:57:39.407Z,16.63
2019-01-03T22:00:11.558Z,13.70
2019-01-03T22:02:40.700Z,15.83
2019-01-03T22:05:09.829Z,14.07
2019-01-03T22:07:39.067Z,17.13
2019-01-03T22:10:10.000Z,12.13
2019-01-03T22:12:39.147Z,14.57
2019-01-03T22:15:09.568Z,15.07
2019-01-03T22:17:38.716Z,16.10
2019-01-03T22:20:09.560Z,14.23
2019-01-03T22:22:38.693Z,16.50
2019-01-03T22:25:08.668Z,16.27
2019-01-03T22:27:37.803Z,13.93
2019-01-03T22:30:10.146Z,15.30
2019-01-03T22:32:39.277Z,19.63
2019-01-03T22:35:08.675Z,18.07
2019-01-03T22:37:37.827Z,17.27
2019-01-03T22:40:08.209Z,16.00
2019-01-03T22:42:37.354Z,14.53
2019-01-03T22:45:08.517Z,19.47
2019-01-03T22:47:37.660Z,14.17
2019-01-03T22:50:10.057Z,16.53
2019-01-03T22:52:39.215Z,13.80
2019-01-03T22:55:08.352Z,16.73
2019-01-03T22:57:37.496Z,14.17
2019-01-03T23:00:31.788Z,12.97
2019-01-03T23:03:00.948Z,14.47
2019-01-03T23:05:30.071Z,17.30
2019-01-03T23:07:59.230Z,15.10
2019-01-03T23:10:28.370Z,13.07
2019-01-03T23:12:57.519Z,15.27
2019-01-03T23:15:26.644Z,17.10
2019-01-03T23:17:55.803Z,15.10
2019-01-03T23:20:24.921Z,13.50
2019-01-03T23:22:54.070Z,14.63
2019-01-03T23:25:23.197Z,11.73
2019-01-03T23:27:52.342Z,13.30
2019-01-03T23:30:21.476Z,16.07
2019-01-03T23:32:50.616Z,16.67
2019-01-03T23:35:19.738Z,14.43
2019-01-03T23:37:48.879Z,14.67
2019-01-03T23:40:18.013Z,16.20
2019-01-03T23:42:47.178Z,18.70
2019-01-03T23:45:19.414Z,16.63
2019-01-03T23:47:50.173Z,19.00
2019-01-03T23:50:28.711Z,18.33
2019-01-03T23:52:57.853Z,16.50
2019-01-03T23:55:26.983Z,18.50
2019-01-03T23:57:56.148Z,15.93
